createdAt,value
2023-02-06T00:01:29.283Z,102893.31
2023-02-06T00:04:31.601Z,102891.38
2023-02-06T00:07:33.982Z,102890.88
2023-02-06T00:10:36.284Z,102885.53
2023-02-06T00:13:38.554Z,102875.53
2023-02-06T00:16:40.868Z,102872.19
2023-02-06T00:19:44.657Z,102875.72
2023-02-06T00:22:46.968Z,102875.97
2023-02-06T00:25:49.291Z,102869.06
2023-02-06T00:28:51.687Z,102886.47
2023-02-06T00:31:54.025Z,102881.16
2023-02-06T00:34:56.393Z,102879.72
2023-02-06T00:38:00.195Z,102874.28
2023-02-06T00:41:03.126Z,102877.94
2023-02-06T00:44:05.763Z,102878.75
2023-02-06T00:47:08.032Z,102885.88
2023-02-06T00:50:10.614Z,102882.28
2023-02-06T00:53:12.888Z,102883.06
2023-02-06T00:56:15.202Z,102881.78
2023-02-06T00:59:17.569Z,102890.66
2023-02-06T01:02:19.821Z,102894.03
2023-02-06T01:05:22.129Z,102897.69
2023-02-06T01:08:24.423Z,102880.81
2023-02-06T01:11:27.680Z,102901.66
2023-02-06T01:14:30.021Z,102898.38
2023-02-06T01:17:33.381Z,102890.34
2023-02-06T01:20:35.747Z,102866.50
2023-02-06T01:23:40.053Z,102878.81
2023-02-06T01:26:42.409Z,102871.81
2023-02-06T01:29:44.699Z,102864.47
2023-02-06T01:32:47.030Z,102871.38
2023-02-06T01:36:00.124Z,102860.19
2023-02-06T01:39:02.486Z,102862.25
2023-02-06T01:42:04.910Z,102863.13
2023-02-06T01:45:41.276Z,102870.50
2023-02-06T01:48:52.531Z,102860.69
2023-02-06T01:51:58.194Z,102858.25
2023-02-06T01:55:03.766Z,102860.09
2023-02-06T01:58:08.624Z,102862.78
2023-02-06T02:01:11.725Z,102864.97
2023-02-06T02:04:17.987Z,102850.28
2023-02-06T02:07:28.739Z,102862.41
2023-02-06T02:10:31.669Z,102855.28
2023-02-06T02:13:34.409Z,102860.72
2023-02-06T02:16:55.193Z,102852.44
2023-02-06T02:20:22.106Z,102845.22
2023-02-06T02:23:42.380Z,102843.41
2023-02-06T02:26:50.537Z,102838.88
2023-02-06T02:30:35.153Z,102831.91
2023-02-06T02:33:55.701Z,102835.41
2023-02-06T02:37:07.906Z,102833.72
2023-02-06T02:40:36.362Z,102825.03
2023-02-06T02:43:45.594Z,102820.72
2023-02-06T02:46:50.824Z,102817.72
2023-02-06T02:49:53.784Z,102819.06
2023-02-06T02:52:56.318Z,102809.88
2023-02-06T02:56:00.244Z,102815.00
2023-02-06T02:59:14.545Z,102813.13
2023-02-06T03:02:27.587Z,102793.41
2023-02-06T03:05:30.466Z,102806.13
2023-02-06T03:08:39.484Z,102785.41
2023-02-06T03:11:46.158Z,102782.91
2023-02-06T03:14:58.977Z,102781.69
2023-02-06T03:18:20.424Z,102784.47
2023-02-06T03:21:24.313Z,102778.75
2023-02-06T03:24:29.770Z,102783.59
2023-02-06T03:27:33.430Z,102783.75
2023-02-06T03:30:36.048Z,102794.56
2023-02-06T03:33:48.396Z,102780.41
2023-02-06T03:36:50.842Z,102776.13
2023-02-06T03:39:53.195Z,102781.41
2023-02-06T03:43:00.619Z,102788.03
2023-02-06T03:46:05.503Z,102777.22
2023-02-06T03:49:08.751Z,102772.19
2023-02-06T03:52:14.076Z,102785.66
2023-02-06T03:55:21.688Z,102782.47
2023-02-06T03:58:24.746Z,102778.09
2023-02-06T04:01:27.812Z,102777.03
2023-02-06T04:04:32.841Z,102778.13
2023-02-06T04:07:36.520Z,102775.91
2023-02-06T04:10:38.956Z,102790.06
2023-02-06T04:13:41.305Z,102791.22
2023-02-06T04:16:43.691Z,102793.13
2023-02-06T04:19:46.061Z,102796.97
2023-02-06T04:22:48.491Z,102780.50
2023-02-06T04:25:50.772Z,102798.88
2023-02-06T04:28:53.139Z,102800.84
2023-02-06T04:32:02.029Z,102809.91
2023-02-06T04:35:04.521Z,102802.41
2023-02-06T04:38:06.878Z,102812.97
2023-02-06T04:41:09.275Z,102784.16
2023-02-06T04:44:11.592Z,102819.25
2023-02-06T04:47:14.047Z,102818.63
2023-02-06T04:50:17.646Z,102819.75
2023-02-06T04:53:19.911Z,102825.00
2023-02-06T04:56:22.273Z,102829.25
2023-02-06T04:59:24.584Z,102836.50
2023-02-06T05:02:27.066Z,102832.78
2023-02-06T05:05:29.405Z,102827.88
2023-02-06T05:08:31.723Z,102832.66
2023-02-06T05:11:34.475Z,102821.19
2023-02-06T05:14:36.792Z,102839.06
2023-02-06T05:17:39.436Z,102829.56
2023-02-06T05:20:43.234Z,102840.44
2023-02-06T05:23:45.538Z,102841.19
2023-02-06T05:26:47.857Z,102847.56
2023-02-06T05:29:50.123Z,102853.75
2023-02-06T05:32:52.574Z,102847.16
2023-02-06T05:35:54.916Z,102847.25
2023-02-06T05:38:57.265Z,102849.06
2023-02-06T05:41:59.653Z,102852.28
2023-02-06T05:45:01.930Z,102853.13
2023-02-06T05:48:04.438Z,102845.03
2023-02-06T05:51:06.760Z,102843.25
2023-02-06T05:54:09.113Z,102843.75
2023-02-06T05:57:11.823Z,102847.91
2023-02-06T06:00:14.729Z,102851.00
2023-02-06T06:03:17.241Z,102844.63
2023-02-06T06:06:19.533Z,102845.13
2023-02-06T06:09:21.875Z,102850.09
2023-02-06T06:12:24.178Z,102851.81
2023-02-06T06:15:26.468Z,102851.31
2023-02-06T06:18:28.943Z,102853.31
2023-02-06T06:21:31.279Z,102849.25
2023-02-06T06:24:33.570Z,102847.28
2023-02-06T06:27:35.964Z,102846.38
2023-02-06T06:30:38.334Z,102855.16
2023-02-06T06:33:40.845Z,102865.78
2023-02-06T06:36:43.154Z,102858.09
2023-02-06T06:39:45.503Z,102845.34
2023-02-06T06:42:47.834Z,102858.66
2023-02-06T06:45:50.394Z,102864.84
2023-02-06T06:48:52.966Z,102848.66
2023-02-06T06:51:55.271Z,102871.22
2023-02-06T06:54:57.579Z,102875.66
2023-02-06T06:57:59.879Z,102881.19
2023-02-06T07:01:02.438Z,102878.88
2023-02-06T07:04:04.951Z,102886.25
2023-02-06T07:07:07.521Z,102872.47
2023-02-06T07:10:11.810Z,102869.19
2023-02-06T07:13:15.638Z,102866.84
2023-02-06T07:16:18.042Z,102875.00
2023-02-06T07:19:21.481Z,102867.34
2023-02-06T07:22:25.660Z,102862.72
2023-02-06T07:25:28.410Z,102860.09
2023-02-06T07:28:31.899Z,102874.16
2023-02-06T07:31:34.173Z,102870.13
2023-02-06T07:34:36.778Z,102869.91
2023-02-06T07:37:39.138Z,102851.78
2023-02-06T07:40:45.679Z,102863.97
2023-02-06T07:43:48.529Z,102848.19
2023-02-06T07:46:52.881Z,102858.84
2023-02-06T07:49:55.350Z,102851.72
2023-02-06T07:52:57.688Z,102849.47
2023-02-06T07:56:00.363Z,102851.03
2023-02-06T07:59:02.719Z,102857.88
2023-02-06T08:02:05.023Z,102848.91
2023-02-06T08:05:07.730Z,102847.94
2023-02-06T08:08:10.836Z,102848.13
2023-02-06T08:11:18.749Z,102850.19
2023-02-06T08:14:21.091Z,102852.94
2023-02-06T08:17:23.493Z,102849.69
2023-02-06T08:20:25.918Z,102855.47
2023-02-06T08:23:28.302Z,102856.00
2023-02-06T08:26:32.746Z,102863.03
2023-02-06T08:29:42.672Z,102881.53
2023-02-06T08:32:45.190Z,102883.25
2023-02-06T08:35:47.489Z,102871.13
2023-02-06T08:38:50.366Z,102871.53
2023-02-06T08:41:52.740Z,102880.56
2023-02-06T08:44:55.132Z,102871.03
2023-02-06T08:47:57.824Z,102866.03
2023-02-06T08:51:04.890Z,102869.78
2023-02-06T08:54:10.124Z,102866.69
2023-02-06T08:57:13.138Z,102863.03
2023-02-06T09:00:16.601Z,102868.41
2023-02-06T09:03:19.058Z,102867.47
2023-02-06T09:06:21.535Z,102870.97
2023-02-06T09:09:23.873Z,102873.28
2023-02-06T09:12:26.180Z,102856.78
2023-02-06T09:15:28.578Z,102883.25
2023-02-06T09:18:30.987Z,102883.00
2023-02-06T09:21:35.603Z,102883.63
2023-02-06T09:24:38.524Z,102900.63
2023-02-06T09:27:40.841Z,102897.97
2023-02-06T09:30:43.172Z,102904.72
2023-02-06T09:33:45.586Z,102903.66
2023-02-06T09:36:47.964Z,102872.56
2023-02-06T09:39:50.243Z,102913.75
2023-02-06T09:42:54.222Z,102883.28
2023-02-06T09:46:00.711Z,102902.81
2023-02-06T09:49:19.383Z,102895.38
2023-02-06T09:52:36.738Z,102902.91
2023-02-06T09:55:43.390Z,102902.81
2023-02-06T09:59:07.126Z,102896.47
2023-02-06T10:02:24.390Z,102908.97
2023-02-06T10:05:26.685Z,102908.97
2023-02-06T10:08:34.956Z,102896.41
2023-02-06T10:12:10.120Z,102902.59
2023-02-06T10:15:25.885Z,102901.59
2023-02-06T10:18:37.300Z,102906.13
2023-02-06T10:21:45.417Z,102907.34
2023-02-06T10:24:53.541Z,102905.09
2023-02-06T10:27:59.494Z,102915.91
2023-02-06T10:31:25.826Z,102910.50
2023-02-06T10:34:40.350Z,102913.59
2023-02-06T10:38:08.604Z,102910.16
2023-02-06T10:41:32.061Z,102920.56
2023-02-06T10:44:51.432Z,102929.44
2023-02-06T10:47:55.195Z,102929.94
2023-02-06T10:51:21.486Z,102927.66
2023-02-06T10:54:27.801Z,102922.84
2023-02-06T10:57:30.875Z,102944.34
2023-02-06T11:00:33.370Z,102935.69
2023-02-06T11:03:47.707Z,102933.34
2023-02-06T11:06:50.128Z,102932.69
2023-02-06T11:09:53.598Z,102930.00
2023-02-06T11:13:08.270Z,102921.75
2023-02-06T11:16:16.804Z,102927.91
2023-02-06T11:19:28.050Z,102923.16
2023-02-06T11:22:34.892Z,102912.50
2023-02-06T11:25:44.748Z,102900.03
2023-02-06T11:28:53.288Z,102902.22
2023-02-06T11:31:58.737Z,102894.97
2023-02-06T11:35:06.637Z,102892.75
2023-02-06T11:38:22.819Z,102888.56
2023-02-06T11:41:25.948Z,102871.22
2023-02-06T11:44:30.233Z,102872.16
2023-02-06T11:47:37.605Z,102868.69
2023-02-06T11:50:41.351Z,102870.69
2023-02-06T11:54:03.733Z,102865.91
2023-02-06T11:57:21.573Z,102857.38
2023-02-06T12:00:24.798Z,102861.66
2023-02-06T12:03:56.040Z,102859.81
2023-02-06T12:07:30.129Z,102854.03
2023-02-06T12:10:36.400Z,102852.47
2023-02-06T12:13:43.679Z,102854.59
2023-02-06T12:16:46.836Z,102849.22
2023-02-06T12:20:00.381Z,102853.19
2023-02-06T12:23:31.815Z,102854.31
2023-02-06T12:26:38.226Z,102858.09
2023-02-06T12:29:56.525Z,102863.34
2023-02-06T12:33:38.323Z,102862.19
2023-02-06T12:36:53.409Z,102861.50
2023-02-06T12:39:55.802Z,102854.22
2023-02-06T12:43:02.881Z,102854.25
2023-02-06T12:46:10.480Z,102863.41
2023-02-06T12:49:21.600Z,102859.94
2023-02-06T12:52:26.117Z,102867.63
2023-02-06T12:55:36.508Z,102844.19
2023-02-06T12:58:44.763Z,102853.25
2023-02-06T13:01:58.333Z,102852.53
2023-02-06T13:05:05.860Z,102859.75
2023-02-06T13:08:10.576Z,102861.78
2023-02-06T13:11:25.287Z,102858.31
2023-02-06T13:14:29.768Z,102855.22
2023-02-06T13:17:40.306Z,102841.66
2023-02-06T13:21:17.757Z,102851.47
2023-02-06T13:24:21.144Z,102849.38
2023-02-06T13:27:38.769Z,102853.97
2023-02-06T13:30:46.048Z,102863.31
2023-02-06T13:33:52.136Z,102859.81
2023-02-06T13:36:54.592Z,102865.41
2023-02-06T13:40:24.606Z,102865.78
2023-02-06T13:43:29.372Z,102866.44
2023-02-06T13:47:10.705Z,102869.84
2023-02-06T13:50:25.081Z,102874.81
2023-02-06T13:53:33.727Z,102880.53
2023-02-06T13:57:00.786Z,102890.72
2023-02-06T14:00:19.598Z,102881.47
2023-02-06T14:03:26.745Z,102884.81
2023-02-06T14:06:44.799Z,102891.50
2023-02-06T14:10:07.050Z,102897.44
2023-02-06T14:13:29.457Z,102894.13
2023-02-06T14:17:12.917Z,102890.16
2023-02-06T14:20:34.014Z,102887.19
2023-02-06T14:23:55.293Z,102884.81
2023-02-06T14:27:09.579Z,102899.81
2023-02-06T14:30:14.544Z,102914.84
2023-02-06T14:33:44.661Z,102916.28
2023-02-06T14:37:16.767Z,102928.44
2023-02-06T14:40:25.100Z,102931.59
2023-02-06T14:43:30.776Z,102929.19
2023-02-06T14:46:33.414Z,102927.75
2023-02-06T14:49:38.331Z,102929.91
2023-02-06T14:52:40.952Z,102937.13
2023-02-06T14:55:48.192Z,102942.50
2023-02-06T14:58:51.593Z,102952.56
2023-02-06T15:01:56.543Z,102935.47
2023-02-06T15:04:59.844Z,102940.75
2023-02-06T15:08:04.307Z,102948.09
2023-02-06T15:11:15.568Z,102953.81
2023-02-06T15:14:23.652Z,102958.16
2023-02-06T15:17:26.934Z,102963.31
2023-02-06T15:20:32.344Z,102970.94
2023-02-06T15:23:57.633Z,102963.91
2023-02-06T15:27:02.558Z,102965.88
2023-02-06T15:30:26.035Z,102952.59
2023-02-06T15:33:36.041Z,102961.47
2023-02-06T15:36:39.833Z,102972.94
2023-02-06T15:39:42.639Z,102980.13
2023-02-06T15:42:46.308Z,102978.19
2023-02-06T15:45:50.862Z,102989.53
2023-02-06T15:48:55.126Z,102969.91
2023-02-06T15:51:58.522Z,102980.94
2023-02-06T15:55:01.189Z,102968.66
2023-02-06T15:58:05.403Z,102978.84
2023-02-06T16:01:17.783Z,102980.84
2023-02-06T16:04:27.945Z,102975.75
2023-02-06T16:07:33.032Z,102976.69
2023-02-06T16:10:39.428Z,102972.13
2023-02-06T16:13:42.173Z,102982.13
2023-02-06T16:16:56.491Z,102987.91
2023-02-06T16:20:02.816Z,102994.13
2023-02-06T16:23:29.276Z,103020.13
2023-02-06T16:26:47.202Z,103015.13
2023-02-06T16:29:52.946Z,103014.25
2023-02-06T16:32:56.657Z,103016.81
2023-02-06T16:35:58.826Z,103024.66
2023-02-06T16:39:04.537Z,103021.69
2023-02-06T16:42:07.179Z,103022.16
2023-02-06T16:45:18.577Z,103018.16
2023-02-06T16:48:20.918Z,103017.22
2023-02-06T16:51:25.792Z,103020.38
2023-02-06T16:54:30.134Z,103033.25
2023-02-06T16:57:43.404Z,103017.47
2023-02-06T17:00:45.910Z,103030.22
2023-02-06T17:03:49.244Z,103039.06
2023-02-06T17:06:52.302Z,103042.94
2023-02-06T17:09:55.733Z,103045.22
2023-02-06T17:12:58.084Z,103039.66
2023-02-06T17:16:00.417Z,103038.56
2023-02-06T17:19:02.809Z,103037.81
2023-02-06T17:22:06.040Z,103030.78
2023-02-06T17:25:08.977Z,103019.94
2023-02-06T17:28:15.288Z,103022.66
2023-02-06T17:31:17.809Z,103029.44
2023-02-06T17:34:20.286Z,103034.16
2023-02-06T17:37:22.697Z,103031.50
2023-02-06T17:40:33.331Z,103018.88
2023-02-06T17:43:37.577Z,103018.47
2023-02-06T17:46:40.323Z,103015.84
2023-02-06T17:49:42.863Z,103005.63
2023-02-06T17:52:46.455Z,103016.31
2023-02-06T17:55:48.840Z,103014.75
2023-02-06T17:58:51.308Z,103004.56
2023-02-06T18:01:53.667Z,103005.06
2023-02-06T18:04:56.311Z,103010.31
2023-02-06T18:07:58.670Z,103002.75
2023-02-06T18:11:01.119Z,103020.50
2023-02-06T18:14:03.478Z,103030.56
2023-02-06T18:17:05.865Z,103027.63
2023-02-06T18:20:09.206Z,103026.91
2023-02-06T18:23:12.476Z,103027.75
2023-02-06T18:26:14.916Z,103022.75
2023-02-06T18:29:17.230Z,103023.75
2023-02-06T18:32:19.807Z,103013.75
2023-02-06T18:35:22.188Z,103019.59
2023-02-06T18:38:25.100Z,103023.41
2023-02-06T18:41:46.722Z,103001.28
2023-02-06T18:44:49.081Z,103013.91
2023-02-06T18:47:51.849Z,102982.16
2023-02-06T18:50:54.722Z,103019.97
2023-02-06T18:53:59.190Z,103027.09
2023-02-06T18:57:01.456Z,103034.44
2023-02-06T19:00:06.322Z,103030.03
2023-02-06T19:03:08.706Z,103023.13
2023-02-06T19:06:13.448Z,103028.97
2023-02-06T19:09:16.504Z,103043.47
2023-02-06T19:12:18.833Z,103034.31
2023-02-06T19:15:21.389Z,103033.94
2023-02-06T19:18:37.557Z,103039.13
2023-02-06T19:21:41.467Z,103045.16
2023-02-06T19:24:44.601Z,103042.22
2023-02-06T19:27:46.929Z,103047.69
2023-02-06T19:30:49.385Z,103036.66
2023-02-06T19:33:58.371Z,103047.97
2023-02-06T19:37:00.703Z,103049.78
2023-02-06T19:40:03.063Z,103048.19
2023-02-06T19:43:05.364Z,103051.41
2023-02-06T19:46:11.908Z,103032.22
2023-02-06T19:49:14.355Z,103030.66
2023-02-06T19:52:16.688Z,103044.69
2023-02-06T19:55:19.424Z,103057.16
2023-02-06T19:58:21.698Z,103037.97
2023-02-06T20:01:24.943Z,103039.94
2023-02-06T20:04:30.780Z,103042.31
2023-02-06T20:07:33.373Z,103021.31
2023-02-06T20:10:38.342Z,103046.94
2023-02-06T20:13:41.629Z,103038.28
2023-02-06T20:16:44.977Z,103041.84
2023-02-06T20:19:47.382Z,103032.66
2023-02-06T20:22:49.719Z,103027.41
2023-02-06T20:25:52.276Z,103038.34
2023-02-06T20:28:54.952Z,103026.88
2023-02-06T20:31:57.775Z,103034.66
2023-02-06T20:35:00.173Z,103043.75
2023-02-06T20:38:02.538Z,103040.28
2023-02-06T20:41:06.237Z,103045.53
2023-02-06T20:44:08.998Z,103050.44
2023-02-06T20:47:11.358Z,103034.34
2023-02-06T20:50:14.594Z,103040.63
2023-02-06T20:53:16.939Z,103054.88
2023-02-06T20:56:20.452Z,103050.59
2023-02-06T20:59:23.272Z,103030.69
2023-02-06T21:02:25.829Z,103035.88
2023-02-06T21:05:28.334Z,103042.66
2023-02-06T21:08:30.749Z,103045.91
2023-02-06T21:11:35.977Z,103043.63
2023-02-06T21:14:38.396Z,103052.16
2023-02-06T21:17:40.706Z,103062.16
2023-02-06T21:20:43.030Z,103054.63
2023-02-06T21:23:47.090Z,103057.72
2023-02-06T21:26:49.542Z,103053.13
2023-02-06T21:29:51.938Z,103046.88
2023-02-06T21:32:55.702Z,103072.91
2023-02-06T21:35:58.266Z,103085.50
2023-02-06T21:39:01.222Z,103086.28
2023-02-06T21:42:03.552Z,103088.91
2023-02-06T21:45:06.312Z,103092.97
2023-02-06T21:48:09.178Z,103102.00
2023-02-06T21:51:17.302Z,103103.19
2023-02-06T21:54:19.641Z,103101.94
2023-02-06T21:57:21.989Z,103102.03
2023-02-06T22:00:24.504Z,103101.66
2023-02-06T22:03:26.899Z,103106.88
2023-02-06T22:06:29.803Z,103098.75
2023-02-06T22:09:32.202Z,103111.81
2023-02-06T22:12:35.266Z,103088.25
2023-02-06T22:15:37.844Z,103105.53
2023-02-06T22:18:41.254Z,103103.19
2023-02-06T22:21:43.664Z,103107.47
2023-02-06T22:24:46.147Z,103105.53
2023-02-06T22:27:48.708Z,103076.69
2023-02-06T22:30:51.136Z,103095.09
2023-02-06T22:33:53.945Z,103097.78
2023-02-06T22:36:56.187Z,103107.28
2023-02-06T22:39:58.536Z,103102.78
2023-02-06T22:43:00.836Z,103097.88
2023-02-06T22:46:03.770Z,103087.66
2023-02-06T22:49:07.361Z,103101.59
2023-02-06T22:52:29.704Z,103102.25
2023-02-06T22:55:52.094Z,103095.31
2023-02-06T22:58:56.083Z,103088.47
2023-02-06T23:01:59.143Z,103091.28
2023-02-06T23:05:01.479Z,103098.00
2023-02-06T23:08:03.981Z,103100.22
2023-02-06T23:11:06.855Z,103093.19
2023-02-06T23:14:09.335Z,103083.81
2023-02-06T23:17:11.986Z,103083.16
2023-02-06T23:20:14.608Z,103076.69
2023-02-06T23:23:16.920Z,103066.31
2023-02-06T23:26:20.377Z,103088.63
2023-02-06T23:29:23.991Z,103083.38
2023-02-06T23:32:26.305Z,103076.25
2023-02-06T23:35:28.772Z,103087.91
2023-02-06T23:38:31.165Z,103086.94
2023-02-06T23:41:34.054Z,103084.63
2023-02-06T23:44:36.344Z,103092.19
2023-02-06T23:47:38.592Z,103092.09
2023-02-06T23:50:40.982Z,103102.25
2023-02-06T23:53:43.414Z,103113.44
2023-02-06T23:56:45.694Z,103107.59
2023-02-06T23:59:49.112Z,103106.38
